sensor_id;sensor_type;location;lat;lon;timestamp;P1;durP1;ratioP1;P2;durP2;ratioP2
15104;SDS011;7653;48.994;9.212;2022-08-21T00:01:49;2.70;;;2.20;;
15104;SDS011;7653;48.994;9.212;2022-08-21T00:04:15;3.30;;;1.97;;
15104;SDS011;7653;48.994;9.212;2022-08-21T00:06:41;5.97;;;2.40;;
15104;SDS011;7653;48.994;9.212;2022-08-21T00:09:08;3.07;;;2.23;;
15104;SDS011;7653;48.994;9.212;2022-08-21T00:11:34;2.13;;;1.93;;
15104;SDS011;7653;48.994;9.212;2022-08-21T00:14:03;3.57;;;2.07;;
15104;SDS011;7653;48.994;9.212;2022-08-21T00:16:30;2.90;;;2.13;;
15104;SDS011;7653;48.994;9.212;2022-08-21T00:18:57;2.83;;;2.23;;
15104;SDS011;7653;48.994;9.212;2022-08-21T00:21:23;2.17;;;1.97;;
15104;SDS011;7653;48.994;9.212;2022-08-21T00:23:50;3.37;;;1.97;;
15104;SDS011;7653;48.994;9.212;2022-08-21T00:26:16;2.77;;;1.93;;
15104;SDS011;7653;48.994;9.212;2022-08-21T00:28:42;4.00;;;2.10;;
15104;SDS011;7653;48.994;9.212;2022-08-21T00:31:10;3.73;;;2.30;;
15104;SDS011;7653;48.994;9.212;2022-08-21T00:33:36;3.67;;;2.60;;
15104;SDS011;7653;48.994;9.212;2022-08-21T00:36:01;2.87;;;2.10;;
15104;SDS011;7653;48.994;9.212;2022-08-21T00:38:28;4.17;;;2.40;;
15104;SDS011;7653;48.994;9.212;2022-08-21T00:40:56;3.60;;;2.27;;
15104;SDS011;7653;48.994;9.212;2022-08-21T00:43:25;2.37;;;2.17;;
15104;SDS011;7653;48.994;9.212;2022-08-21T00:45:54;4.83;;;2.23;;
15104;SDS011;7653;48.994;9.212;2022-08-21T00:48:22;4.40;;;2.57;;
15104;SDS011;7653;48.994;9.212;2022-08-21T00:53:48;3.00;;;2.50;;
15104;SDS011;7653;48.994;9.212;2022-08-21T00:56:18;3.10;;;2.20;;
15104;SDS011;7653;48.994;9.212;2022-08-21T00:58:46;3.07;;;2.30;;
15104;SDS011;7653;48.994;9.212;2022-08-21T01:01:12;4.63;;;2.30;;
15104;SDS011;7653;48.994;9.212;2022-08-21T01:03:38;3.47;;;2.30;;
15104;SDS011;7653;48.994;9.212;2022-08-21T01:06:04;3.20;;;2.30;;
15104;SDS011;7653;48.994;9.212;2022-08-21T01:08:31;3.53;;;2.40;;
15104;SDS011;7653;48.994;9.212;2022-08-21T01:10:58;3.00;;;2.60;;
15104;SDS011;7653;48.994;9.212;2022-08-21T01:13:25;4.17;;;2.40;;
15104;SDS011;7653;48.994;9.212;2022-08-21T01:15:54;3.03;;;2.47;;
15104;SDS011;7653;48.994;9.212;2022-08-21T01:18:25;4.27;;;2.60;;
15104;SDS011;7653;48.994;9.212;2022-08-21T01:20:58;4.10;;;2.33;;
15104;SDS011;7653;48.994;9.212;2022-08-21T01:23:38;3.30;;;2.50;;
15104;SDS011;7653;48.994;9.212;2022-08-21T01:26:06;2.50;;;2.20;;
15104;SDS011;7653;48.994;9.212;2022-08-21T01:28:34;2.67;;;2.20;;
15104;SDS011;7653;48.994;9.212;2022-08-21T01:31:03;3.70;;;2.40;;
15104;SDS011;7653;48.994;9.212;2022-08-21T01:33:32;2.77;;;2.10;;
15104;SDS011;7653;48.994;9.212;2022-08-21T01:35:58;3.53;;;2.43;;
15104;SDS011;7653;48.994;9.212;2022-08-21T01:38:24;5.27;;;2.30;;
15104;SDS011;7653;48.994;9.212;2022-08-21T01:40:50;3.73;;;2.40;;
15104;SDS011;7653;48.994;9.212;2022-08-21T01:43:17;4.00;;;2.60;;
15104;SDS011;7653;48.994;9.212;2022-08-21T01:45:43;3.57;;;2.33;;
15104;SDS011;7653;48.994;9.212;2022-08-21T01:48:08;3.43;;;2.33;;
15104;SDS011;7653;48.994;9.212;2022-08-21T01:50:34;6.50;;;2.60;;
15104;SDS011;7653;48.994;9.212;2022-08-21T01:53:01;3.03;;;2.20;;
15104;SDS011;7653;48.994;9.212;2022-08-21T01:55:27;6.37;;;2.70;;
15104;SDS011;7653;48.994;9.212;2022-08-21T01:57:52;2.80;;;2.30;;
15104;SDS011;7653;48.994;9.212;2022-08-21T02:00:20;3.60;;;2.20;;
15104;SDS011;7653;48.994;9.212;2022-08-21T02:02:48;4.70;;;2.33;;
15104;SDS011;7653;48.994;9.212;2022-08-21T02:05:14;2.47;;;2.20;;
15104;SDS011;7653;48.994;9.212;2022-08-21T02:07:42;2.97;;;2.20;;
15104;SDS011;7653;48.994;9.212;2022-08-21T02:10:13;3.37;;;2.40;;
15104;SDS011;7653;48.994;9.212;2022-08-21T02:12:43;4.83;;;2.50;;
15104;SDS011;7653;48.994;9.212;2022-08-21T02:15:09;5.87;;;2.60;;
15104;SDS011;7653;48.994;9.212;2022-08-21T02:17:39;3.63;;;2.43;;
15104;SDS011;7653;48.994;9.212;2022-08-21T02:20:06;4.27;;;2.80;;
15104;SDS011;7653;48.994;9.212;2022-08-21T02:22:33;4.10;;;2.50;;
15104;SDS011;7653;48.994;9.212;2022-08-21T02:25:01;5.13;;;2.70;;
15104;SDS011;7653;48.994;9.212;2022-08-21T02:27:29;2.30;;;2.10;;
15104;SDS011;7653;48.994;9.212;2022-08-21T02:30:03;4.17;;;2.30;;
15104;SDS011;7653;48.994;9.212;2022-08-21T02:32:29;2.70;;;2.50;;
15104;SDS011;7653;48.994;9.212;2022-08-21T02:34:55;3.97;;;2.37;;
15104;SDS011;7653;48.994;9.212;2022-08-21T02:37:21;4.10;;;2.73;;
15104;SDS011;7653;48.994;9.212;2022-08-21T02:39:49;3.90;;;2.60;;
15104;SDS011;7653;48.994;9.212;2022-08-21T02:42:17;5.33;;;2.70;;
15104;SDS011;7653;48.994;9.212;2022-08-21T02:44:43;5.30;;;3.10;;
15104;SDS011;7653;48.994;9.212;2022-08-21T02:47:08;3.40;;;2.37;;
15104;SDS011;7653;48.994;9.212;2022-08-21T02:49:34;3.70;;;2.30;;
15104;SDS011;7653;48.994;9.212;2022-08-21T02:52:00;3.47;;;2.60;;
15104;SDS011;7653;48.994;9.212;2022-08-21T02:54:26;3.83;;;2.60;;
15104;SDS011;7653;48.994;9.212;2022-08-21T02:56:51;3.43;;;2.47;;
15104;SDS011;7653;48.994;9.212;2022-08-21T02:59:17;3.00;;;2.63;;
15104;SDS011;7653;48.994;9.212;2022-08-21T03:01:43;3.63;;;2.40;;
15104;SDS011;7653;48.994;9.212;2022-08-21T03:04:09;4.00;;;2.37;;
15104;SDS011;7653;48.994;9.212;2022-08-21T03:06:35;5.63;;;2.60;;
15104;SDS011;7653;48.994;9.212;2022-08-21T03:09:01;2.60;;;2.27;;
15104;SDS011;7653;48.994;9.212;2022-08-21T03:11:27;2.93;;;2.50;;
15104;SDS011;7653;48.994;9.212;2022-08-21T03:13:53;4.47;;;2.40;;
15104;SDS011;7653;48.994;9.212;2022-08-21T03:16:19;3.13;;;2.80;;
15104;SDS011;7653;48.994;9.212;2022-08-21T03:18:45;2.50;;;2.30;;
15104;SDS011;7653;48.994;9.212;2022-08-21T03:21:11;5.50;;;2.40;;
15104;SDS011;7653;48.994;9.212;2022-08-21T03:23:38;3.20;;;2.60;;
15104;SDS011;7653;48.994;9.212;2022-08-21T03:26:05;2.83;;;2.60;;
15104;SDS011;7653;48.994;9.212;2022-08-21T03:28:31;2.70;;;2.10;;
15104;SDS011;7653;48.994;9.212;2022-08-21T03:30:57;3.23;;;2.63;;
15104;SDS011;7653;48.994;9.212;2022-08-21T03:33:23;3.77;;;2.57;;
15104;SDS011;7653;48.994;9.212;2022-08-21T03:35:59;3.17;;;2.20;;
15104;SDS011;7653;48.994;9.212;2022-08-21T03:38:28;3.43;;;2.20;;
15104;SDS011;7653;48.994;9.212;2022-08-21T03:40:56;4.20;;;2.60;;
15104;SDS011;7653;48.994;9.212;2022-08-21T03:43:22;2.90;;;2.50;;
15104;SDS011;7653;48.994;9.212;2022-08-21T03:45:47;2.60;;;2.40;;
15104;SDS011;7653;48.994;9.212;2022-08-21T03:48:13;3.53;;;2.33;;
15104;SDS011;7653;48.994;9.212;2022-08-21T03:50:40;3.63;;;2.50;;
15104;SDS011;7653;48.994;9.212;2022-08-21T03:53:11;3.83;;;2.80;;
15104;SDS011;7653;48.994;9.212;2022-08-21T03:55:37;3.27;;;2.77;;
15104;SDS011;7653;48.994;9.212;2022-08-21T03:58:03;2.90;;;2.60;;
15104;SDS011;7653;48.994;9.212;2022-08-21T04:00:29;4.90;;;2.47;;
15104;SDS011;7653;48.994;9.212;2022-08-21T04:02:55;4.80;;;2.40;;
15104;SDS011;7653;48.994;9.212;2022-08-21T04:05:20;3.60;;;2.90;;
15104;SDS011;7653;48.994;9.212;2022-08-21T04:07:53;4.10;;;2.70;;
15104;SDS011;7653;48.994;9.212;2022-08-21T04:10:20;3.83;;;2.73;;
15104;SDS011;7653;48.994;9.212;2022-08-21T04:12:46;3.77;;;2.83;;
15104;SDS011;7653;48.994;9.212;2022-08-21T04:15:12;3.50;;;3.00;;
15104;SDS011;7653;48.994;9.212;2022-08-21T04:17:38;5.07;;;3.03;;
15104;SDS011;7653;48.994;9.212;2022-08-21T04:20:04;4.20;;;2.53;;
15104;SDS011;7653;48.994;9.212;2022-08-21T04:22:30;4.03;;;2.80;;
15104;SDS011;7653;48.994;9.212;2022-08-21T04:24:55;6.30;;;2.87;;
15104;SDS011;7653;48.994;9.212;2022-08-21T04:27:21;2.97;;;2.57;;
15104;SDS011;7653;48.994;9.212;2022-08-21T04:29:46;3.60;;;3.10;;
15104;SDS011;7653;48.994;9.212;2022-08-21T04:32:12;3.00;;;2.60;;
15104;SDS011;7653;48.994;9.212;2022-08-21T04:34:38;6.40;;;2.63;;
15104;SDS011;7653;48.994;9.212;2022-08-21T04:37:03;3.27;;;2.90;;
15104;SDS011;7653;48.994;9.212;2022-08-21T04:39:29;7.53;;;3.27;;
15104;SDS011;7653;48.994;9.212;2022-08-21T04:41:55;4.20;;;2.90;;
15104;SDS011;7653;48.994;9.212;2022-08-21T04:44:20;4.40;;;2.90;;
15104;SDS011;7653;48.994;9.212;2022-08-21T04:46:46;3.50;;;3.00;;
15104;SDS011;7653;48.994;9.212;2022-08-21T04:49:12;3.77;;;3.07;;
15104;SDS011;7653;48.994;9.212;2022-08-21T04:51:37;3.40;;;3.10;;
15104;SDS011;7653;48.994;9.212;2022-08-21T04:54:14;4.33;;;2.80;;
15104;SDS011;7653;48.994;9.212;2022-08-21T04:56:50;5.77;;;3.30;;
15104;SDS011;7653;48.994;9.212;2022-08-21T04:59:24;5.53;;;3.27;;
15104;SDS011;7653;48.994;9.212;2022-08-21T05:01:56;5.90;;;3.60;;
15104;SDS011;7653;48.994;9.212;2022-08-21T05:04:24;3.97;;;3.50;;
15104;SDS011;7653;48.994;9.212;2022-08-21T05:06:52;3.40;;;3.07;;
15104;SDS011;7653;48.994;9.212;2022-08-21T05:09:21;4.30;;;3.27;;
15104;SDS011;7653;48.994;9.212;2022-08-21T05:11:48;4.30;;;3.70;;
15104;SDS011;7653;48.994;9.212;2022-08-21T05:14:14;4.97;;;3.10;;
15104;SDS011;7653;48.994;9.212;2022-08-21T05:16:41;3.90;;;3.10;;
15104;SDS011;7653;48.994;9.212;2022-08-21T05:19:08;3.73;;;3.37;;
15104;SDS011;7653;48.994;9.212;2022-08-21T05:21:35;3.67;;;3.37;;
15104;SDS011;7653;48.994;9.212;2022-08-21T05:24:03;4.20;;;2.80;;
15104;SDS011;7653;48.994;9.212;2022-08-21T05:26:28;3.90;;;2.80;;
15104;SDS011;7653;48.994;9.212;2022-08-21T05:28:54;5.87;;;3.33;;
15104;SDS011;7653;48.994;9.212;2022-08-21T05:31:22;3.87;;;3.13;;
15104;SDS011;7653;48.994;9.212;2022-08-21T05:33:50;3.20;;;2.90;;
15104;SDS011;7653;48.994;9.212;2022-08-21T05:36:18;3.67;;;3.27;;
15104;SDS011;7653;48.994;9.212;2022-08-21T05:38:44;3.60;;;3.30;;
15104;SDS011;7653;48.994;9.212;2022-08-21T05:41:10;5.77;;;3.57;;
15104;SDS011;7653;48.994;9.212;2022-08-21T05:43:36;3.93;;;3.30;;
15104;SDS011;7653;48.994;9.212;2022-08-21T05:46:02;4.93;;;3.30;;
15104;SDS011;7653;48.994;9.212;2022-08-21T05:48:29;3.70;;;3.10;;
15104;SDS011;7653;48.994;9.212;2022-08-21T05:50:55;3.57;;;3.27;;
15104;SDS011;7653;48.994;9.212;2022-08-21T05:53:21;4.03;;;3.60;;
15104;SDS011;7653;48.994;9.212;2022-08-21T05:55:48;3.50;;;3.20;;
15104;SDS011;7653;48.994;9.212;2022-08-21T05:58:15;3.90;;;3.47;;
15104;SDS011;7653;48.994;9.212;2022-08-21T06:00:44;5.27;;;3.40;;
15104;SDS011;7653;48.994;9.212;2022-08-21T06:03:16;5.00;;;3.30;;
15104;SDS011;7653;48.994;9.212;2022-08-21T06:05:46;3.80;;;3.43;;
15104;SDS011;7653;48.994;9.212;2022-08-21T06:08:13;3.97;;;3.53;;
15104;SDS011;7653;48.994;9.212;2022-08-21T06:10:40;4.97;;;3.63;;
15104;SDS011;7653;48.994;9.212;2022-08-21T06:13:06;4.90;;;3.50;;
15104;SDS011;7653;48.994;9.212;2022-08-21T06:15:32;5.33;;;3.70;;
15104;SDS011;7653;48.994;9.212;2022-08-21T06:17:58;4.83;;;3.63;;
15104;SDS011;7653;48.994;9.212;2022-08-21T06:20:23;4.17;;;3.77;;
15104;SDS011;7653;48.994;9.212;2022-08-21T06:22:49;6.50;;;3.77;;
15104;SDS011;7653;48.994;9.212;2022-08-21T06:25:15;4.83;;;4.10;;
15104;SDS011;7653;48.994;9.212;2022-08-21T06:27:40;4.30;;;3.90;;
15104;SDS011;7653;48.994;9.212;2022-08-21T06:30:06;6.20;;;3.90;;
15104;SDS011;7653;48.994;9.212;2022-08-21T06:32:33;5.37;;;4.13;;
15104;SDS011;7653;48.994;9.212;2022-08-21T06:34:59;4.30;;;3.73;;
15104;SDS011;7653;48.994;9.212;2022-08-21T06:37:24;4.50;;;3.80;;
15104;SDS011;7653;48.994;9.212;2022-08-21T06:39:50;5.40;;;3.60;;
15104;SDS011;7653;48.994;9.212;2022-08-21T06:42:16;5.77;;;3.70;;
15104;SDS011;7653;48.994;9.212;2022-08-21T06:44:42;4.87;;;3.87;;
15104;SDS011;7653;48.994;9.212;2022-08-21T06:47:08;5.73;;;4.00;;
15104;SDS011;7653;48.994;9.212;2022-08-21T06:49:35;5.57;;;3.90;;
15104;SDS011;7653;48.994;9.212;2022-08-21T06:52:02;3.50;;;3.20;;
15104;SDS011;7653;48.994;9.212;2022-08-21T06:54:28;5.27;;;3.73;;
15104;SDS011;7653;48.994;9.212;2022-08-21T06:56:55;5.00;;;3.20;;
15104;SDS011;7653;48.994;9.212;2022-08-21T06:59:21;4.70;;;3.40;;
15104;SDS011;7653;48.994;9.212;2022-08-21T07:01:46;5.07;;;3.73;;
15104;SDS011;7653;48.994;9.212;2022-08-21T07:04:12;4.27;;;3.50;;
15104;SDS011;7653;48.994;9.212;2022-08-21T07:06:38;3.50;;;3.20;;
15104;SDS011;7653;48.994;9.212;2022-08-21T07:09:03;6.50;;;4.00;;
15104;SDS011;7653;48.994;9.212;2022-08-21T07:11:29;4.80;;;3.77;;
15104;SDS011;7653;48.994;9.212;2022-08-21T07:13:55;3.47;;;3.17;;
15104;SDS011;7653;48.994;9.212;2022-08-21T07:16:21;3.60;;;3.30;;
15104;SDS011;7653;48.994;9.212;2022-08-21T07:18:47;6.50;;;3.40;;
15104;SDS011;7653;48.994;9.212;2022-08-21T07:21:13;3.97;;;3.40;;
15104;SDS011;7653;48.994;9.212;2022-08-21T07:23:42;5.70;;;3.10;;
15104;SDS011;7653;48.994;9.212;2022-08-21T07:26:10;5.17;;;3.70;;
15104;SDS011;7653;48.994;9.212;2022-08-21T07:28:36;6.33;;;3.50;;
15104;SDS011;7653;48.994;9.212;2022-08-21T07:31:03;5.67;;;3.87;;
15104;SDS011;7653;48.994;9.212;2022-08-21T07:33:30;4.63;;;3.33;;
15104;SDS011;7653;48.994;9.212;2022-08-21T07:35:57;3.43;;;3.10;;
15104;SDS011;7653;48.994;9.212;2022-08-21T07:38:23;3.87;;;3.40;;
15104;SDS011;7653;48.994;9.212;2022-08-21T07:40:49;5.47;;;3.30;;
15104;SDS011;7653;48.994;9.212;2022-08-21T07:43:17;4.80;;;3.70;;
15104;SDS011;7653;48.994;9.212;2022-08-21T07:45:43;6.17;;;3.47;;
15104;SDS011;7653;48.994;9.212;2022-08-21T07:48:10;4.37;;;3.40;;
15104;SDS011;7653;48.994;9.212;2022-08-21T07:50:36;7.33;;;3.40;;
15104;SDS011;7653;48.994;9.212;2022-08-21T07:53:02;4.83;;;3.63;;
15104;SDS011;7653;48.994;9.212;2022-08-21T07:55:29;6.03;;;3.37;;
15104;SDS011;7653;48.994;9.212;2022-08-21T07:57:54;4.30;;;2.77;;
15104;SDS011;7653;48.994;9.212;2022-08-21T08:00:22;5.97;;;3.33;;
15104;SDS011;7653;48.994;9.212;2022-08-21T08:02:50;5.97;;;3.50;;
15104;SDS011;7653;48.994;9.212;2022-08-21T08:05:20;4.80;;;3.27;;
15104;SDS011;7653;48.994;9.212;2022-08-21T08:07:49;7.50;;;3.43;;
15104;SDS011;7653;48.994;9.212;2022-08-21T08:10:15;8.43;;;3.63;;
15104;SDS011;7653;48.994;9.212;2022-08-21T08:12:42;5.37;;;3.40;;
15104;SDS011;7653;48.994;9.212;2022-08-21T08:15:12;8.67;;;4.00;;
15104;SDS011;7653;48.994;9.212;2022-08-21T08:17:40;6.47;;;4.10;;
15104;SDS011;7653;48.994;9.212;2022-08-21T08:20:06;6.13;;;3.73;;
15104;SDS011;7653;48.994;9.212;2022-08-21T08:22:33;5.90;;;3.70;;
15104;SDS011;7653;48.994;9.212;2022-08-21T08:25:00;6.57;;;3.53;;
15104;SDS011;7653;48.994;9.212;2022-08-21T08:27:26;5.50;;;3.70;;
15104;SDS011;7653;48.994;9.212;2022-08-21T08:29:53;5.63;;;3.53;;
15104;SDS011;7653;48.994;9.212;2022-08-21T08:32:19;5.17;;;3.47;;
15104;SDS011;7653;48.994;9.212;2022-08-21T08:34:44;8.83;;;3.90;;
15104;SDS011;7653;48.994;9.212;2022-08-21T08:37:12;7.53;;;4.00;;
15104;SDS011;7653;48.994;9.212;2022-08-21T08:39:39;5.30;;;3.90;;
15104;SDS011;7653;48.994;9.212;2022-08-21T08:42:09;8.20;;;4.47;;
15104;SDS011;7653;48.994;9.212;2022-08-21T08:44:42;6.80;;;4.23;;
15104;SDS011;7653;48.994;9.212;2022-08-21T08:47:10;8.57;;;4.80;;
15104;SDS011;7653;48.994;9.212;2022-08-21T08:52:30;6.13;;;4.40;;
15104;SDS011;7653;48.994;9.212;2022-08-21T08:55:04;7.63;;;4.13;;
15104;SDS011;7653;48.994;9.212;2022-08-21T08:57:37;7.77;;;4.20;;
15104;SDS011;7653;48.994;9.212;2022-08-21T09:00:11;5.87;;;4.37;;
15104;SDS011;7653;48.994;9.212;2022-08-21T09:02:40;6.70;;;3.87;;
15104;SDS011;7653;48.994;9.212;2022-08-21T09:05:30;6.43;;;4.27;;
15104;SDS011;7653;48.994;9.212;2022-08-21T09:22:03;7.33;;;3.70;;
15104;SDS011;7653;48.994;9.212;2022-08-21T09:33:09;5.87;;;3.70;;
15104;SDS011;7653;48.994;9.212;2022-08-21T09:43:16;4.17;;;3.53;;
15104;SDS011;7653;48.994;9.212;2022-08-21T09:46:26;7.67;;;3.53;;
15104;SDS011;7653;48.994;9.212;2022-08-21T09:49:31;7.83;;;3.43;;
15104;SDS011;7653;48.994;9.212;2022-08-21T09:58:32;5.27;;;2.93;;
15104;SDS011;7653;48.994;9.212;2022-08-21T10:01:15;4.57;;;3.07;;
15104;SDS011;7653;48.994;9.212;2022-08-21T10:04:09;3.50;;;2.73;;
15104;SDS011;7653;48.994;9.212;2022-08-21T10:06:35;5.83;;;3.00;;
15104;SDS011;7653;48.994;9.212;2022-08-21T10:09:10;6.47;;;3.03;;
15104;SDS011;7653;48.994;9.212;2022-08-21T10:11:38;6.07;;;3.20;;
15104;SDS011;7653;48.994;9.212;2022-08-21T10:29:05;6.10;;;2.90;;
15104;SDS011;7653;48.994;9.212;2022-08-21T10:31:56;7.13;;;3.30;;
15104;SDS011;7653;48.994;9.212;2022-08-21T10:48:39;6.17;;;2.90;;
15104;SDS011;7653;48.994;9.212;2022-08-21T10:57:21;4.87;;;2.70;;
15104;SDS011;7653;48.994;9.212;2022-08-21T11:00:10;5.90;;;3.00;;
15104;SDS011;7653;48.994;9.212;2022-08-21T11:03:02;5.80;;;3.07;;
15104;SDS011;7653;48.994;9.212;2022-08-21T11:05:38;6.83;;;3.10;;
15104;SDS011;7653;48.994;9.212;2022-08-21T11:08:31;4.43;;;2.60;;
15104;SDS011;7653;48.994;9.212;2022-08-21T11:11:29;5.73;;;2.80;;
15104;SDS011;7653;48.994;9.212;2022-08-21T11:14:36;4.67;;;2.47;;
15104;SDS011;7653;48.994;9.212;2022-08-21T11:17:22;6.33;;;2.60;;
15104;SDS011;7653;48.994;9.212;2022-08-21T11:26:38;4.87;;;2.60;;
15104;SDS011;7653;48.994;9.212;2022-08-21T11:29:16;5.73;;;2.67;;
15104;SDS011;7653;48.994;9.212;2022-08-21T11:40:21;5.00;;;2.57;;
15104;SDS011;7653;48.994;9.212;2022-08-21T11:52:07;5.83;;;2.70;;
15104;SDS011;7653;48.994;9.212;2022-08-21T11:54:43;5.67;;;2.57;;
15104;SDS011;7653;48.994;9.212;2022-08-21T12:03:13;4.30;;;2.33;;
15104;SDS011;7653;48.994;9.212;2022-08-21T12:06:00;4.67;;;2.60;;
15104;SDS011;7653;48.994;9.212;2022-08-21T12:11:27;8.52;;;2.60;;
15104;SDS011;7653;48.994;9.212;2022-08-21T12:16:36;3.50;;;2.40;;
15104;SDS011;7653;48.994;9.212;2022-08-21T12:19:09;5.20;;;2.72;;
15104;SDS011;7653;48.994;9.212;2022-08-21T12:21:58;5.18;;;2.55;;
15104;SDS011;7653;48.994;9.212;2022-08-21T12:24:49;5.72;;;2.65;;
15104;SDS011;7653;48.994;9.212;2022-08-21T12:27:30;5.05;;;2.63;;
15104;SDS011;7653;48.994;9.212;2022-08-21T12:30:07;6.15;;;2.63;;
15104;SDS011;7653;48.994;9.212;2022-08-21T12:32:54;3.53;;;2.28;;
15104;SDS011;7653;48.994;9.212;2022-08-21T12:35:24;5.65;;;2.85;;
15104;SDS011;7653;48.994;9.212;2022-08-21T12:37:57;5.10;;;2.70;;
15104;SDS011;7653;48.994;9.212;2022-08-21T12:43:02;4.00;;;2.50;;
15104;SDS011;7653;48.994;9.212;2022-08-21T12:51:09;4.22;;;2.50;;
15104;SDS011;7653;48.994;9.212;2022-08-21T12:53:43;4.07;;;2.10;;
15104;SDS011;7653;48.994;9.212;2022-08-21T12:56:11;6.07;;;2.58;;
15104;SDS011;7653;48.994;9.212;2022-08-21T12:58:51;5.38;;;2.60;;
15104;SDS011;7653;48.994;9.212;2022-08-21T13:01:33;2.70;;;2.10;;
15104;SDS011;7653;48.994;9.212;2022-08-21T13:04:21;7.13;;;2.78;;
15104;SDS011;7653;48.994;9.212;2022-08-21T13:06:53;3.67;;;2.40;;
15104;SDS011;7653;48.994;9.212;2022-08-21T13:09:27;4.53;;;2.67;;
15104;SDS011;7653;48.994;9.212;2022-08-21T13:11:57;4.32;;;2.80;;
15104;SDS011;7653;48.994;9.212;2022-08-21T13:14:35;6.15;;;2.65;;
15104;SDS011;7653;48.994;9.212;2022-08-21T13:17:05;5.75;;;2.53;;
15104;SDS011;7653;48.994;9.212;2022-08-21T13:19:32;5.95;;;2.38;;
15104;SDS011;7653;48.994;9.212;2022-08-21T13:21:59;2.35;;;2.00;;
15104;SDS011;7653;48.994;9.212;2022-08-21T13:24:35;4.97;;;2.42;;
15104;SDS011;7653;48.994;9.212;2022-08-21T13:27:02;4.80;;;2.45;;
15104;SDS011;7653;48.994;9.212;2022-08-21T13:29:30;3.83;;;2.22;;
15104;SDS011;7653;48.994;9.212;2022-08-21T13:32:00;2.92;;;2.28;;
15104;SDS011;7653;48.994;9.212;2022-08-21T13:34:35;6.15;;;2.25;;
15104;SDS011;7653;48.994;9.212;2022-08-21T13:37:04;4.43;;;2.17;;
15104;SDS011;7653;48.994;9.212;2022-08-21T13:39:32;3.45;;;2.00;;
15104;SDS011;7653;48.994;9.212;2022-08-21T13:41:59;3.92;;;2.30;;
15104;SDS011;7653;48.994;9.212;2022-08-21T13:47:21;4.85;;;2.13;;
15104;SDS011;7653;48.994;9.212;2022-08-21T13:49:47;4.70;;;2.38;;
15104;SDS011;7653;48.994;9.212;2022-08-21T13:54:58;4.47;;;2.13;;
15104;SDS011;7653;48.994;9.212;2022-08-21T13:57:27;3.50;;;2.00;;
15104;SDS011;7653;48.994;9.212;2022-08-21T14:02:53;4.00;;;2.50;;
15104;SDS011;7653;48.994;9.212;2022-08-21T14:05:31;4.65;;;2.47;;
15104;SDS011;7653;48.994;9.212;2022-08-21T14:08:02;4.05;;;2.33;;
15104;SDS011;7653;48.994;9.212;2022-08-21T14:10:28;4.65;;;2.38;;
15104;SDS011;7653;48.994;9.212;2022-08-21T14:12:58;3.47;;;2.33;;
15104;SDS011;7653;48.994;9.212;2022-08-21T14:15:30;3.40;;;1.90;;
15104;SDS011;7653;48.994;9.212;2022-08-21T14:18:08;3.15;;;1.95;;
15104;SDS011;7653;48.994;9.212;2022-08-21T14:20:39;3.67;;;2.50;;
15104;SDS011;7653;48.994;9.212;2022-08-21T14:23:05;3.40;;;2.28;;
15104;SDS011;7653;48.994;9.212;2022-08-21T14:25:42;5.55;;;2.58;;
15104;SDS011;7653;48.994;9.212;2022-08-21T14:30:59;4.93;;;2.58;;
15104;SDS011;7653;48.994;9.212;2022-08-21T14:33:41;3.72;;;2.10;;
15104;SDS011;7653;48.994;9.212;2022-08-21T14:36:07;3.13;;;2.13;;
15104;SDS011;7653;48.994;9.212;2022-08-21T14:38:34;3.28;;;2.20;;
15104;SDS011;7653;48.994;9.212;2022-08-21T14:41:44;3.83;;;2.20;;
15104;SDS011;7653;48.994;9.212;2022-08-21T14:43:52;4.18;;;2.63;;
15104;SDS011;7653;48.994;9.212;2022-08-21T14:46:24;3.83;;;2.38;;
15104;SDS011;7653;48.994;9.212;2022-08-21T14:48:53;5.70;;;2.30;;
15104;SDS011;7653;48.994;9.212;2022-08-21T14:51:19;5.60;;;2.45;;
15104;SDS011;7653;48.994;9.212;2022-08-21T14:53:44;4.07;;;2.33;;
15104;SDS011;7653;48.994;9.212;2022-08-21T14:56:10;3.92;;;2.13;;
15104;SDS011;7653;48.994;9.212;2022-08-21T14:58:39;2.90;;;2.45;;
15104;SDS011;7653;48.994;9.212;2022-08-21T15:01:08;4.25;;;2.03;;
15104;SDS011;7653;48.994;9.212;2022-08-21T15:03:36;2.72;;;1.80;;
15104;SDS011;7653;48.994;9.212;2022-08-21T15:06:02;4.43;;;2.60;;
15104;SDS011;7653;48.994;9.212;2022-08-21T15:08:29;3.70;;;2.08;;
15104;SDS011;7653;48.994;9.212;2022-08-21T15:10:55;3.92;;;2.55;;
15104;SDS011;7653;48.994;9.212;2022-08-21T15:13:21;3.30;;;2.05;;
15104;SDS011;7653;48.994;9.212;2022-08-21T15:15:48;4.85;;;2.17;;
15104;SDS011;7653;48.994;9.212;2022-08-21T15:18:17;5.40;;;2.47;;
15104;SDS011;7653;48.994;9.212;2022-08-21T15:20:44;5.25;;;2.40;;
15104;SDS011;7653;48.994;9.212;2022-08-21T15:23:09;4.60;;;2.40;;
15104;SDS011;7653;48.994;9.212;2022-08-21T15:25:35;5.55;;;2.42;;
15104;SDS011;7653;48.994;9.212;2022-08-21T15:28:01;4.47;;;2.30;;
15104;SDS011;7653;48.994;9.212;2022-08-21T15:30:28;3.30;;;1.95;;
15104;SDS011;7653;48.994;9.212;2022-08-21T15:32:55;4.53;;;2.30;;
15104;SDS011;7653;48.994;9.212;2022-08-21T15:35:21;4.28;;;2.35;;
15104;SDS011;7653;48.994;9.212;2022-08-21T15:37:47;4.10;;;2.25;;
15104;SDS011;7653;48.994;9.212;2022-08-21T15:40:13;3.05;;;2.13;;
15104;SDS011;7653;48.994;9.212;2022-08-21T15:42:40;2.97;;;2.10;;
15104;SDS011;7653;48.994;9.212;2022-08-21T15:45:07;3.40;;;2.33;;
15104;SDS011;7653;48.994;9.212;2022-08-21T15:47:35;4.60;;;2.33;;
15104;SDS011;7653;48.994;9.212;2022-08-21T15:50:03;4.63;;;2.10;;
15104;SDS011;7653;48.994;9.212;2022-08-21T15:52:32;3.80;;;2.30;;
15104;SDS011;7653;48.994;9.212;2022-08-21T15:54:58;3.60;;;2.10;;
15104;SDS011;7653;48.994;9.212;2022-08-21T15:57:24;3.33;;;1.95;;
15104;SDS011;7653;48.994;9.212;2022-08-21T15:59:51;3.60;;;2.50;;
15104;SDS011;7653;48.994;9.212;2022-08-21T16:02:32;4.85;;;2.40;;
15104;SDS011;7653;48.994;9.212;2022-08-21T16:04:58;4.10;;;2.20;;
15104;SDS011;7653;48.994;9.212;2022-08-21T16:07:24;6.50;;;2.45;;
15104;SDS011;7653;48.994;9.212;2022-08-21T16:09:50;4.00;;;2.28;;
15104;SDS011;7653;48.994;9.212;2022-08-21T16:12:18;2.28;;;1.83;;
15104;SDS011;7653;48.994;9.212;2022-08-21T16:14:47;4.63;;;2.60;;
15104;SDS011;7653;48.994;9.212;2022-08-21T16:17:14;5.70;;;2.30;;
15104;SDS011;7653;48.994;9.212;2022-08-21T16:19:40;4.75;;;2.15;;
15104;SDS011;7653;48.994;9.212;2022-08-21T16:22:06;4.50;;;2.42;;
15104;SDS011;7653;48.994;9.212;2022-08-21T16:24:32;4.05;;;2.65;;
15104;SDS011;7653;48.994;9.212;2022-08-21T16:27:00;4.25;;;2.65;;
15104;SDS011;7653;48.994;9.212;2022-08-21T16:29:27;5.35;;;2.20;;
15104;SDS011;7653;48.994;9.212;2022-08-21T16:31:57;4.43;;;2.58;;
15104;SDS011;7653;48.994;9.212;2022-08-21T16:34:23;4.13;;;2.40;;
15104;SDS011;7653;48.994;9.212;2022-08-21T16:36:54;3.92;;;2.33;;
15104;SDS011;7653;48.994;9.212;2022-08-21T16:39:22;3.92;;;2.50;;
15104;SDS011;7653;48.994;9.212;2022-08-21T16:41:47;3.53;;;2.33;;
15104;SDS011;7653;48.994;9.212;2022-08-21T16:44:15;3.40;;;2.13;;
15104;SDS011;7653;48.994;9.212;2022-08-21T16:46:41;3.85;;;2.00;;
15104;SDS011;7653;48.994;9.212;2022-08-21T16:49:07;4.80;;;2.47;;
15104;SDS011;7653;48.994;9.212;2022-08-21T16:51:34;4.50;;;2.33;;
15104;SDS011;7653;48.994;9.212;2022-08-21T16:54:00;3.55;;;2.10;;
15104;SDS011;7653;48.994;9.212;2022-08-21T16:56:29;3.33;;;2.10;;
15104;SDS011;7653;48.994;9.212;2022-08-21T16:58:57;3.60;;;2.00;;
15104;SDS011;7653;48.994;9.212;2022-08-21T17:01:25;3.20;;;2.00;;
15104;SDS011;7653;48.994;9.212;2022-08-21T17:03:54;2.90;;;1.98;;
15104;SDS011;7653;48.994;9.212;2022-08-21T17:06:20;5.50;;;4.20;;
15104;SDS011;7653;48.994;9.212;2022-08-21T17:08:47;18.45;;;12.32;;
15104;SDS011;7653;48.994;9.212;2022-08-21T17:11:27;4.82;;;4.32;;
15104;SDS011;7653;48.994;9.212;2022-08-21T17:14:08;3.30;;;2.25;;
15104;SDS011;7653;48.994;9.212;2022-08-21T17:16:46;3.00;;;1.70;;
15104;SDS011;7653;48.994;9.212;2022-08-21T17:19:17;3.10;;;2.47;;
15104;SDS011;7653;48.994;9.212;2022-08-21T17:21:44;3.67;;;2.00;;
15104;SDS011;7653;48.994;9.212;2022-08-21T17:24:11;3.67;;;2.63;;
15104;SDS011;7653;48.994;9.212;2022-08-21T17:26:39;3.00;;;2.20;;